Decoded Metar for SBPA (PORTO ALEGRE in BRAZIL) (IATA:POA) | Meteo·Mobile Aviation Weather
aviador You're here:

SBPA Decoded Metar

PORTO ALEGRE in BRAZIL
Report Time2018-12-11 10:00:00
UTC Time2018-12-11 10:52:40
Flight Rules vfr VFR
Wind070° at 03 kt
W.Decomp.*RWY 11: 2.7 kt HW 1.2 kt LCW
W.Rank070° ranks 10
Current wind is below 070° avg. (4.3)
Visibility9999 m
Phenomena:N/A
Clouds:N/A
Expected CloudBase > 2,000 ft AGL from Temp-Dew spread
CeilingNone
Temp23°C (ISA +8)
Dew Point18°C (74% RH)
QNH1016 hPa
Density Alt1,115 ft
Elevation10 ft
Report Wrong Elevation
Raw Report
METAR SBPA 111000Z 07003KT CAVOK 23/18 Q1016=

Extra information for SBPA:More info

Metar Taf Metar & Taf Last 4 Metars F.Rules Stats Wind Profile Meteogram Temp Stats Airport Information Weather charts Add Link Nearby VenuesMetar ALERT Operation Metar Decoded Social comments